Terminal Aerodrome Forecast
Issued by NWS Wilmington, NC

Home | Current Version | Previous Version | Text Only | Print | Product List | Glossary On
Versions: 1 2 3 4 5 6 7 8 9 10 11 12 13 14 15 16 17
000
FTUS42 KILM 221700
TAFILM
TAF
KILM 221727Z 2218/2318 35006KT P6SM OVC005
      TEMPO 2221/2301 4SM -RA BR OVC007
     FM230100 01005KT 2SM RA BR OVC004
     FM230500 05003KT 3SM BR VCSH OVC003
     FM231500 13004KT P6SM VCSH OVC006=

USA.gov is the U.S. government's official web portal to all federal, state and local government web resources and services.